sensor_id;sensor_type;location;lat;lon;timestamp;P1;durP1;ratioP1;P2;durP2;ratioP2
44662;SDS011;30381;52.754;18.258;2023-03-01T00:01:11;47.30;;;20.10;;
44662;SDS011;30381;52.754;18.258;2023-03-01T00:03:40;45.50;;;20.40;;
44662;SDS011;30381;52.754;18.258;2023-03-01T00:06:07;47.80;;;19.80;;
44662;SDS011;30381;52.754;18.258;2023-03-01T00:08:33;47.80;;;19.70;;
44662;SDS011;30381;52.754;18.258;2023-03-01T00:11:10;47.10;;;19.60;;
44662;SDS011;30381;52.754;18.258;2023-03-01T00:13:38;45.90;;;19.70;;
44662;SDS011;30381;52.754;18.258;2023-03-01T00:16:06;48.20;;;21.50;;
44662;SDS011;30381;52.754;18.258;2023-03-01T00:18:35;44.00;;;19.80;;
44662;SDS011;30381;52.754;18.258;2023-03-01T00:21:01;47.80;;;19.60;;
44662;SDS011;30381;52.754;18.258;2023-03-01T00:23:28;48.00;;;21.70;;
44662;SDS011;30381;52.754;18.258;2023-03-01T00:25:55;57.30;;;22.50;;
44662;SDS011;30381;52.754;18.258;2023-03-01T00:28:21;50.30;;;21.80;;
44662;SDS011;30381;52.754;18.258;2023-03-01T00:30:47;49.30;;;21.10;;
44662;SDS011;30381;52.754;18.258;2023-03-01T00:33:14;50.90;;;21.20;;
44662;SDS011;30381;52.754;18.258;2023-03-01T00:35:43;48.20;;;21.60;;
44662;SDS011;30381;52.754;18.258;2023-03-01T00:38:09;45.40;;;19.70;;
44662;SDS011;30381;52.754;18.258;2023-03-01T00:40:35;46.90;;;21.60;;
44662;SDS011;30381;52.754;18.258;2023-03-01T00:43:02;53.10;;;20.60;;
44662;SDS011;30381;52.754;18.258;2023-03-01T00:45:30;50.80;;;23.00;;
44662;SDS011;30381;52.754;18.258;2023-03-01T00:47:57;45.50;;;21.60;;
44662;SDS011;30381;52.754;18.258;2023-03-01T00:50:23;48.60;;;22.20;;
44662;SDS011;30381;52.754;18.258;2023-03-01T00:52:55;65.40;;;27.90;;
44662;SDS011;30381;52.754;18.258;2023-03-01T00:55:24;57.10;;;23.20;;
44662;SDS011;30381;52.754;18.258;2023-03-01T00:57:51;50.40;;;22.10;;
44662;SDS011;30381;52.754;18.258;2023-03-01T01:00:18;53.10;;;22.90;;
44662;SDS011;30381;52.754;18.258;2023-03-01T01:02:45;54.50;;;23.20;;
44662;SDS011;30381;52.754;18.258;2023-03-01T01:05:12;55.70;;;23.60;;
44662;SDS011;30381;52.754;18.258;2023-03-01T01:07:39;53.90;;;23.80;;
44662;SDS011;30381;52.754;18.258;2023-03-01T01:10:06;52.70;;;22.60;;
44662;SDS011;30381;52.754;18.258;2023-03-01T01:12:33;50.90;;;23.50;;
44662;SDS011;30381;52.754;18.258;2023-03-01T01:14:59;50.90;;;21.20;;
44662;SDS011;30381;52.754;18.258;2023-03-01T01:17:25;56.40;;;22.50;;
44662;SDS011;30381;52.754;18.258;2023-03-01T01:19:53;55.10;;;23.10;;
44662;SDS011;30381;52.754;18.258;2023-03-01T01:22:20;55.80;;;22.10;;
44662;SDS011;30381;52.754;18.258;2023-03-01T01:24:46;59.80;;;22.40;;
44662;SDS011;30381;52.754;18.258;2023-03-01T01:27:12;54.20;;;22.90;;
44662;SDS011;30381;52.754;18.258;2023-03-01T01:29:38;62.20;;;23.50;;
44662;SDS011;30381;52.754;18.258;2023-03-01T01:32:05;54.70;;;21.80;;
44662;SDS011;30381;52.754;18.258;2023-03-01T01:34:31;50.50;;;21.80;;
44662;SDS011;30381;52.754;18.258;2023-03-01T01:36:57;60.70;;;23.40;;
44662;SDS011;30381;52.754;18.258;2023-03-01T01:39:28;53.10;;;21.80;;
44662;SDS011;30381;52.754;18.258;2023-03-01T01:41:54;55.90;;;22.00;;
44662;SDS011;30381;52.754;18.258;2023-03-01T01:44:25;57.40;;;23.00;;
44662;SDS011;30381;52.754;18.258;2023-03-01T01:49:33;46.20;;;19.50;;
44662;SDS011;30381;52.754;18.258;2023-03-01T01:52:16;51.90;;;21.80;;
44662;SDS011;30381;52.754;18.258;2023-03-01T01:55:05;54.30;;;22.70;;
44662;SDS011;30381;52.754;18.258;2023-03-01T01:57:37;53.50;;;20.10;;
44662;SDS011;30381;52.754;18.258;2023-03-01T02:00:08;50.10;;;20.80;;
44662;SDS011;30381;52.754;18.258;2023-03-01T02:02:38;54.50;;;20.50;;
44662;SDS011;30381;52.754;18.258;2023-03-01T02:05:09;55.60;;;21.70;;
44662;SDS011;30381;52.754;18.258;2023-03-01T02:07:39;57.60;;;23.10;;
44662;SDS011;30381;52.754;18.258;2023-03-01T02:10:07;52.90;;;24.00;;
44662;SDS011;30381;52.754;18.258;2023-03-01T02:12:33;56.00;;;22.70;;
44662;SDS011;30381;52.754;18.258;2023-03-01T02:15:01;62.30;;;23.80;;
44662;SDS011;30381;52.754;18.258;2023-03-01T02:17:27;54.20;;;24.30;;
44662;SDS011;30381;52.754;18.258;2023-03-01T02:20:10;58.40;;;24.20;;
44662;SDS011;30381;52.754;18.258;2023-03-01T02:22:40;50.20;;;22.90;;
44662;SDS011;30381;52.754;18.258;2023-03-01T02:27:51;56.20;;;22.80;;
44662;SDS011;30381;52.754;18.258;2023-03-01T02:30:27;53.30;;;21.90;;
44662;SDS011;30381;52.754;18.258;2023-03-01T02:32:56;50.60;;;21.20;;
44662;SDS011;30381;52.754;18.258;2023-03-01T02:35:35;61.00;;;23.00;;
44662;SDS011;30381;52.754;18.258;2023-03-01T02:38:06;51.90;;;20.20;;
44662;SDS011;30381;52.754;18.258;2023-03-01T02:40:34;43.90;;;19.40;;
44662;SDS011;30381;52.754;18.258;2023-03-01T02:43:03;50.10;;;19.90;;
44662;SDS011;30381;52.754;18.258;2023-03-01T02:45:34;53.40;;;22.30;;
44662;SDS011;30381;52.754;18.258;2023-03-01T02:48:00;46.10;;;22.00;;
44662;SDS011;30381;52.754;18.258;2023-03-01T02:52:57;52.30;;;21.40;;
44662;SDS011;30381;52.754;18.258;2023-03-01T02:55:32;52.40;;;20.10;;
44662;SDS011;30381;52.754;18.258;2023-03-01T02:57:58;51.40;;;22.30;;
44662;SDS011;30381;52.754;18.258;2023-03-01T03:00:29;46.60;;;21.80;;
44662;SDS011;30381;52.754;18.258;2023-03-01T03:03:05;51.40;;;23.20;;
44662;SDS011;30381;52.754;18.258;2023-03-01T03:05:33;54.00;;;24.10;;
44662;SDS011;30381;52.754;18.258;2023-03-01T03:08:00;52.40;;;22.50;;
44662;SDS011;30381;52.754;18.258;2023-03-01T03:10:32;50.00;;;23.10;;
44662;SDS011;30381;52.754;18.258;2023-03-01T03:13:01;47.00;;;22.70;;
44662;SDS011;30381;52.754;18.258;2023-03-01T03:15:29;54.10;;;23.60;;
44662;SDS011;30381;52.754;18.258;2023-03-01T03:17:56;52.20;;;23.90;;
44662;SDS011;30381;52.754;18.258;2023-03-01T03:20:26;49.80;;;22.30;;
44662;SDS011;30381;52.754;18.258;2023-03-01T03:22:54;50.80;;;22.80;;
44662;SDS011;30381;52.754;18.258;2023-03-01T03:25:22;48.90;;;20.80;;
44662;SDS011;30381;52.754;18.258;2023-03-01T03:27:49;46.40;;;19.80;;
44662;SDS011;30381;52.754;18.258;2023-03-01T03:30:23;47.60;;;20.80;;
44662;SDS011;30381;52.754;18.258;2023-03-01T03:32:53;50.90;;;20.70;;
44662;SDS011;30381;52.754;18.258;2023-03-01T03:37:48;54.90;;;21.20;;
44662;SDS011;30381;52.754;18.258;2023-03-01T03:42:57;50.50;;;21.90;;
44662;SDS011;30381;52.754;18.258;2023-03-01T03:45:23;52.70;;;20.50;;
44662;SDS011;30381;52.754;18.258;2023-03-01T03:47:49;52.60;;;21.80;;
44662;SDS011;30381;52.754;18.258;2023-03-01T03:50:16;52.30;;;21.20;;
44662;SDS011;30381;52.754;18.258;2023-03-01T03:52:43;53.10;;;21.10;;
44662;SDS011;30381;52.754;18.258;2023-03-01T03:55:11;48.50;;;23.00;;
44662;SDS011;30381;52.754;18.258;2023-03-01T03:57:38;51.50;;;21.20;;
44662;SDS011;30381;52.754;18.258;2023-03-01T04:00:06;54.50;;;21.40;;
44662;SDS011;30381;52.754;18.258;2023-03-01T04:02:39;55.10;;;21.70;;
44662;SDS011;30381;52.754;18.258;2023-03-01T04:05:06;49.10;;;20.30;;
44662;SDS011;30381;52.754;18.258;2023-03-01T04:07:34;53.80;;;21.70;;
44662;SDS011;30381;52.754;18.258;2023-03-01T04:10:02;53.10;;;22.70;;
44662;SDS011;30381;52.754;18.258;2023-03-01T04:12:29;48.90;;;22.10;;
44662;SDS011;30381;52.754;18.258;2023-03-01T04:14:55;52.90;;;21.60;;
44662;SDS011;30381;52.754;18.258;2023-03-01T04:17:21;53.60;;;21.60;;
44662;SDS011;30381;52.754;18.258;2023-03-01T04:19:47;57.50;;;22.70;;
44662;SDS011;30381;52.754;18.258;2023-03-01T04:22:14;54.00;;;23.40;;
44662;SDS011;30381;52.754;18.258;2023-03-01T04:24:44;59.70;;;24.10;;
44662;SDS011;30381;52.754;18.258;2023-03-01T04:27:11;59.10;;;26.30;;
44662;SDS011;30381;52.754;18.258;2023-03-01T04:29:38;52.80;;;22.20;;
44662;SDS011;30381;52.754;18.258;2023-03-01T04:32:04;56.80;;;23.60;;
44662;SDS011;30381;52.754;18.258;2023-03-01T04:34:30;45.40;;;20.80;;
44662;SDS011;30381;52.754;18.258;2023-03-01T04:36:56;47.60;;;20.70;;
44662;SDS011;30381;52.754;18.258;2023-03-01T04:39:22;47.90;;;20.80;;
44662;SDS011;30381;52.754;18.258;2023-03-01T04:41:49;60.20;;;22.90;;
44662;SDS011;30381;52.754;18.258;2023-03-01T04:44:15;44.80;;;20.80;;
44662;SDS011;30381;52.754;18.258;2023-03-01T04:46:41;45.80;;;19.80;;
44662;SDS011;30381;52.754;18.258;2023-03-01T04:49:07;46.30;;;20.10;;
44662;SDS011;30381;52.754;18.258;2023-03-01T04:51:33;42.50;;;18.50;;
44662;SDS011;30381;52.754;18.258;2023-03-01T04:53:59;43.10;;;19.80;;
44662;SDS011;30381;52.754;18.258;2023-03-01T04:56:26;44.80;;;21.90;;
44662;SDS011;30381;52.754;18.258;2023-03-01T04:58:53;48.30;;;22.80;;
44662;SDS011;30381;52.754;18.258;2023-03-01T05:01:20;48.50;;;22.30;;
44662;SDS011;30381;52.754;18.258;2023-03-01T05:03:47;46.00;;;22.40;;
44662;SDS011;30381;52.754;18.258;2023-03-01T05:06:18;52.20;;;21.80;;
44662;SDS011;30381;52.754;18.258;2023-03-01T05:08:45;51.10;;;21.20;;
44662;SDS011;30381;52.754;18.258;2023-03-01T05:11:11;49.50;;;24.00;;
44662;SDS011;30381;52.754;18.258;2023-03-01T05:13:38;51.10;;;23.20;;
44662;SDS011;30381;52.754;18.258;2023-03-01T05:16:05;50.10;;;23.00;;
44662;SDS011;30381;52.754;18.258;2023-03-01T05:18:36;50.20;;;21.90;;
44662;SDS011;30381;52.754;18.258;2023-03-01T05:21:09;49.80;;;21.60;;
44662;SDS011;30381;52.754;18.258;2023-03-01T05:23:37;45.70;;;21.60;;
44662;SDS011;30381;52.754;18.258;2023-03-01T05:26:04;47.40;;;21.00;;
44662;SDS011;30381;52.754;18.258;2023-03-01T05:28:32;46.10;;;21.20;;
44662;SDS011;30381;52.754;18.258;2023-03-01T05:30:58;46.30;;;20.20;;
44662;SDS011;30381;52.754;18.258;2023-03-01T05:33:26;51.40;;;20.60;;
44662;SDS011;30381;52.754;18.258;2023-03-01T05:35:53;49.80;;;19.60;;
44662;SDS011;30381;52.754;18.258;2023-03-01T05:38:19;43.10;;;19.50;;
44662;SDS011;30381;52.754;18.258;2023-03-01T05:40:50;44.90;;;19.00;;
44662;SDS011;30381;52.754;18.258;2023-03-01T05:43:16;45.20;;;20.00;;
44662;SDS011;30381;52.754;18.258;2023-03-01T05:45:46;46.30;;;19.80;;
44662;SDS011;30381;52.754;18.258;2023-03-01T05:48:28;45.20;;;19.80;;
44662;SDS011;30381;52.754;18.258;2023-03-01T05:50:58;48.20;;;20.10;;
44662;SDS011;30381;52.754;18.258;2023-03-01T05:53:26;45.80;;;19.60;;
44662;SDS011;30381;52.754;18.258;2023-03-01T05:55:52;47.00;;;21.10;;
44662;SDS011;30381;52.754;18.258;2023-03-01T05:58:19;47.10;;;21.60;;
44662;SDS011;30381;52.754;18.258;2023-03-01T06:00:46;52.30;;;20.20;;
44662;SDS011;30381;52.754;18.258;2023-03-01T06:03:14;46.70;;;20.90;;
44662;SDS011;30381;52.754;18.258;2023-03-01T06:05:41;42.80;;;20.30;;
44662;SDS011;30381;52.754;18.258;2023-03-01T06:08:09;51.70;;;19.50;;
44662;SDS011;30381;52.754;18.258;2023-03-01T06:10:36;52.20;;;19.50;;
44662;SDS011;30381;52.754;18.258;2023-03-01T06:13:03;51.50;;;20.20;;
44662;SDS011;30381;52.754;18.258;2023-03-01T06:15:29;51.80;;;22.20;;
44662;SDS011;30381;52.754;18.258;2023-03-01T06:17:55;56.10;;;22.50;;
44662;SDS011;30381;52.754;18.258;2023-03-01T06:20:25;68.10;;;23.20;;
44662;SDS011;30381;52.754;18.258;2023-03-01T06:22:53;45.00;;;20.10;;
44662;SDS011;30381;52.754;18.258;2023-03-01T06:25:27;47.70;;;20.30;;
44662;SDS011;30381;52.754;18.258;2023-03-01T06:27:53;48.00;;;20.10;;
44662;SDS011;30381;52.754;18.258;2023-03-01T06:30:20;49.80;;;20.80;;
44662;SDS011;30381;52.754;18.258;2023-03-01T06:32:48;45.30;;;22.20;;
44662;SDS011;30381;52.754;18.258;2023-03-01T06:35:15;44.50;;;20.30;;
44662;SDS011;30381;52.754;18.258;2023-03-01T06:37:47;44.90;;;21.40;;
44662;SDS011;30381;52.754;18.258;2023-03-01T06:40:14;51.30;;;22.40;;
44662;SDS011;30381;52.754;18.258;2023-03-01T06:42:48;40.80;;;20.60;;
44662;SDS011;30381;52.754;18.258;2023-03-01T06:47:52;45.50;;;20.80;;
44662;SDS011;30381;52.754;18.258;2023-03-01T06:50:18;49.80;;;20.50;;
44662;SDS011;30381;52.754;18.258;2023-03-01T06:52:48;38.50;;;18.90;;
44662;SDS011;30381;52.754;18.258;2023-03-01T06:55:14;46.30;;;20.60;;
44662;SDS011;30381;52.754;18.258;2023-03-01T06:57:41;47.50;;;20.80;;
44662;SDS011;30381;52.754;18.258;2023-03-01T07:00:09;42.50;;;19.80;;
44662;SDS011;30381;52.754;18.258;2023-03-01T07:02:38;43.10;;;20.80;;
44662;SDS011;30381;52.754;18.258;2023-03-01T07:05:07;41.20;;;21.20;;
44662;SDS011;30381;52.754;18.258;2023-03-01T07:07:33;38.60;;;19.60;;
44662;SDS011;30381;52.754;18.258;2023-03-01T07:10:00;42.20;;;21.60;;
44662;SDS011;30381;52.754;18.258;2023-03-01T07:12:26;44.30;;;22.60;;
44662;SDS011;30381;52.754;18.258;2023-03-01T07:14:54;47.00;;;22.50;;
44662;SDS011;30381;52.754;18.258;2023-03-01T07:17:21;40.20;;;20.70;;
44662;SDS011;30381;52.754;18.258;2023-03-01T07:19:47;37.70;;;18.80;;
44662;SDS011;30381;52.754;18.258;2023-03-01T07:22:16;39.10;;;19.10;;
44662;SDS011;30381;52.754;18.258;2023-03-01T07:24:45;39.40;;;19.30;;
44662;SDS011;30381;52.754;18.258;2023-03-01T07:27:13;42.50;;;18.60;;
44662;SDS011;30381;52.754;18.258;2023-03-01T07:29:41;39.70;;;19.50;;
44662;SDS011;30381;52.754;18.258;2023-03-01T07:32:08;39.00;;;18.90;;
44662;SDS011;30381;52.754;18.258;2023-03-01T07:37:33;42.20;;;17.60;;
44662;SDS011;30381;52.754;18.258;2023-03-01T07:40:03;33.40;;;16.00;;
44662;SDS011;30381;52.754;18.258;2023-03-01T07:44:55;40.20;;;18.80;;
44662;SDS011;30381;52.754;18.258;2023-03-01T07:47:25;41.70;;;22.20;;
44662;SDS011;30381;52.754;18.258;2023-03-01T07:49:52;46.20;;;20.90;;
44662;SDS011;30381;52.754;18.258;2023-03-01T07:52:25;38.20;;;18.10;;
44662;SDS011;30381;52.754;18.258;2023-03-01T07:54:56;38.70;;;20.10;;
44662;SDS011;30381;52.754;18.258;2023-03-01T07:57:24;40.40;;;19.50;;
44662;SDS011;30381;52.754;18.258;2023-03-01T07:59:53;40.00;;;20.00;;
44662;SDS011;30381;52.754;18.258;2023-03-01T08:04:55;36.00;;;17.50;;
44662;SDS011;30381;52.754;18.258;2023-03-01T08:07:42;34.70;;;16.40;;
44662;SDS011;30381;52.754;18.258;2023-03-01T08:10:15;35.60;;;15.80;;
44662;SDS011;30381;52.754;18.258;2023-03-01T08:12:43;32.80;;;15.90;;
44662;SDS011;30381;52.754;18.258;2023-03-01T08:15:11;34.30;;;14.10;;
44662;SDS011;30381;52.754;18.258;2023-03-01T08:18:04;31.80;;;14.30;;
44662;SDS011;30381;52.754;18.258;2023-03-01T08:20:30;31.00;;;15.30;;
44662;SDS011;30381;52.754;18.258;2023-03-01T08:22:57;28.40;;;15.20;;
44662;SDS011;30381;52.754;18.258;2023-03-01T08:30:17;36.30;;;16.80;;
44662;SDS011;30381;52.754;18.258;2023-03-01T08:32:47;37.00;;;17.30;;
44662;SDS011;30381;52.754;18.258;2023-03-01T08:35:13;32.70;;;15.90;;
44662;SDS011;30381;52.754;18.258;2023-03-01T08:37:43;30.90;;;15.40;;
44662;SDS011;30381;52.754;18.258;2023-03-01T08:40:12;29.20;;;14.70;;
44662;SDS011;30381;52.754;18.258;2023-03-01T08:42:40;31.70;;;14.30;;
44662;SDS011;30381;52.754;18.258;2023-03-01T08:45:13;30.60;;;15.30;;
44662;SDS011;30381;52.754;18.258;2023-03-01T08:47:52;27.00;;;13.60;;
44662;SDS011;30381;52.754;18.258;2023-03-01T08:50:30;29.80;;;14.40;;
44662;SDS011;30381;52.754;18.258;2023-03-01T08:53:44;29.60;;;15.90;;
44662;SDS011;30381;52.754;18.258;2023-03-01T08:56:32;33.60;;;15.30;;
44662;SDS011;30381;52.754;18.258;2023-03-01T08:58:59;31.90;;;15.40;;
44662;SDS011;30381;52.754;18.258;2023-03-01T09:01:25;32.30;;;14.40;;
44662;SDS011;30381;52.754;18.258;2023-03-01T09:03:56;27.10;;;14.00;;
44662;SDS011;30381;52.754;18.258;2023-03-01T09:06:23;29.50;;;14.50;;
44662;SDS011;30381;52.754;18.258;2023-03-01T09:08:52;33.20;;;15.10;;
44662;SDS011;30381;52.754;18.258;2023-03-01T09:11:23;29.70;;;14.30;;
44662;SDS011;30381;52.754;18.258;2023-03-01T09:13:50;34.60;;;15.60;;
44662;SDS011;30381;52.754;18.258;2023-03-01T09:16:19;33.20;;;15.60;;
44662;SDS011;30381;52.754;18.258;2023-03-01T09:18:50;29.40;;;14.50;;
44662;SDS011;30381;52.754;18.258;2023-03-01T09:21:23;39.30;;;19.30;;
44662;SDS011;30381;52.754;18.258;2023-03-01T09:23:49;33.80;;;16.70;;
44662;SDS011;30381;52.754;18.258;2023-03-01T09:26:18;33.00;;;18.60;;
44662;SDS011;30381;52.754;18.258;2023-03-01T09:28:48;36.70;;;17.90;;
44662;SDS011;30381;52.754;18.258;2023-03-01T09:33:56;34.90;;;16.90;;
44662;SDS011;30381;52.754;18.258;2023-03-01T09:36:23;37.70;;;19.90;;
44662;SDS011;30381;52.754;18.258;2023-03-01T09:41:37;37.60;;;19.30;;
44662;SDS011;30381;52.754;18.258;2023-03-01T09:44:18;37.10;;;19.80;;
44662;SDS011;30381;52.754;18.258;2023-03-01T09:46:53;39.00;;;22.10;;
44662;SDS011;30381;52.754;18.258;2023-03-01T09:49:24;40.20;;;22.80;;
44662;SDS011;30381;52.754;18.258;2023-03-01T09:52:40;37.80;;;19.90;;
44662;SDS011;30381;52.754;18.258;2023-03-01T10:01:29;65.90;;;30.20;;
44662;SDS011;30381;52.754;18.258;2023-03-01T10:06:41;43.00;;;24.50;;
44662;SDS011;30381;52.754;18.258;2023-03-01T10:09:23;58.80;;;31.90;;
44662;SDS011;30381;52.754;18.258;2023-03-01T10:11:52;51.20;;;28.50;;
44662;SDS011;30381;52.754;18.258;2023-03-01T10:22:48;62.90;;;35.00;;
44662;SDS011;30381;52.754;18.258;2023-03-01T10:31:24;134.50;;;51.10;;
44662;SDS011;30381;52.754;18.258;2023-03-01T10:34:08;113.60;;;47.20;;
44662;SDS011;30381;52.754;18.258;2023-03-01T10:37:00;99.00;;;42.70;;
44662;SDS011;30381;52.754;18.258;2023-03-01T10:39:35;153.20;;;65.00;;
44662;SDS011;30381;52.754;18.258;2023-03-01T10:44:49;76.10;;;36.60;;
44662;SDS011;30381;52.754;18.258;2023-03-01T10:52:21;40.30;;;19.60;;
44662;SDS011;30381;52.754;18.258;2023-03-01T10:54:55;124.20;;;41.90;;
44662;SDS011;30381;52.754;18.258;2023-03-01T11:00:58;70.80;;;27.20;;
44662;SDS011;30381;52.754;18.258;2023-03-01T11:03:34;66.00;;;26.80;;
44662;SDS011;30381;52.754;18.258;2023-03-01T11:08:44;47.80;;;21.90;;
44662;SDS011;30381;52.754;18.258;2023-03-01T11:11:21;62.60;;;25.40;;
44662;SDS011;30381;52.754;18.258;2023-03-01T11:14:04;104.20;;;34.70;;
44662;SDS011;30381;52.754;18.258;2023-03-01T11:16:34;62.40;;;24.40;;
44662;SDS011;30381;52.754;18.258;2023-03-01T11:22:20;80.10;;;28.40;;
44662;SDS011;30381;52.754;18.258;2023-03-01T11:24:37;50.70;;;21.40;;
44662;SDS011;30381;52.754;18.258;2023-03-01T11:27:14;96.00;;;30.30;;
44662;SDS011;30381;52.754;18.258;2023-03-01T11:30:36;99.60;;;31.50;;
44662;SDS011;30381;52.754;18.258;2023-03-01T11:38:02;114.80;;;35.80;;
44662;SDS011;30381;52.754;18.258;2023-03-01T11:40:43;89.50;;;31.40;;
44662;SDS011;30381;52.754;18.258;2023-03-01T11:56:35;52.10;;;22.20;;
44662;SDS011;30381;52.754;18.258;2023-03-01T11:59:26;58.80;;;25.20;;
44662;SDS011;30381;52.754;18.258;2023-03-01T12:08:00;41.20;;;21.90;;
44662;SDS011;30381;52.754;18.258;2023-03-01T12:10:42;37.70;;;18.80;;
44662;SDS011;30381;52.754;18.258;2023-03-01T12:16:04;34.00;;;17.90;;
44662;SDS011;30381;52.754;18.258;2023-03-01T12:21:18;30.20;;;17.00;;
44662;SDS011;30381;52.754;18.258;2023-03-01T12:26:32;29.20;;;16.30;;
44662;SDS011;30381;52.754;18.258;2023-03-01T12:29:12;27.30;;;15.50;;
44662;SDS011;30381;52.754;18.258;2023-03-01T12:42:25;29.30;;;15.40;;
44662;SDS011;30381;52.754;18.258;2023-03-01T12:50:51;27.60;;;15.20;;
44662;SDS011;30381;52.754;18.258;2023-03-01T12:53:28;29.10;;;15.70;;
44662;SDS011;30381;52.754;18.258;2023-03-01T12:56:06;30.00;;;15.90;;
44662;SDS011;30381;52.754;18.258;2023-03-01T13:09:29;33.10;;;16.70;;
44662;SDS011;30381;52.754;18.258;2023-03-01T13:12:02;32.80;;;17.50;;
44662;SDS011;30381;52.754;18.258;2023-03-01T13:16:58;34.80;;;18.70;;
44662;SDS011;30381;52.754;18.258;2023-03-01T13:19:32;32.00;;;17.00;;
44662;SDS011;30381;52.754;18.258;2023-03-01T13:22:01;36.60;;;19.80;;
44662;SDS011;30381;52.754;18.258;2023-03-01T13:25:00;142.40;;;74.20;;
44662;SDS011;30381;52.754;18.258;2023-03-01T13:27:29;65.30;;;43.40;;
44662;SDS011;30381;52.754;18.258;2023-03-01T13:29:57;37.40;;;22.50;;
44662;SDS011;30381;52.754;18.258;2023-03-01T13:32:32;34.20;;;19.00;;
44662;SDS011;30381;52.754;18.258;2023-03-01T13:37:45;40.30;;;21.90;;
44662;SDS011;30381;52.754;18.258;2023-03-01T13:42:45;33.30;;;17.70;;
44662;SDS011;30381;52.754;18.258;2023-03-01T13:45:32;42.60;;;21.10;;
44662;SDS011;30381;52.754;18.258;2023-03-01T13:48:02;37.50;;;18.30;;
44662;SDS011;30381;52.754;18.258;2023-03-01T13:50:47;31.30;;;16.30;;
44662;SDS011;30381;52.754;18.258;2023-03-01T13:53:18;32.80;;;17.70;;
44662;SDS011;30381;52.754;18.258;2023-03-01T13:55:48;28.70;;;15.50;;
44662;SDS011;30381;52.754;18.258;2023-03-01T13:58:49;31.90;;;16.50;;
44662;SDS011;30381;52.754;18.258;2023-03-01T14:01:30;39.90;;;21.40;;
44662;SDS011;30381;52.754;18.258;2023-03-01T14:03:59;31.10;;;17.10;;
44662;SDS011;30381;52.754;18.258;2023-03-01T14:06:26;38.60;;;18.60;;
44662;SDS011;30381;52.754;18.258;2023-03-01T14:11:59;44.00;;;21.70;;
44662;SDS011;30381;52.754;18.258;2023-03-01T14:20:40;30.30;;;15.50;;
44662;SDS011;30381;52.754;18.258;2023-03-01T14:23:18;31.00;;;16.00;;
44662;SDS011;30381;52.754;18.258;2023-03-01T14:29:38;30.90;;;14.50;;
44662;SDS011;30381;52.754;18.258;2023-03-01T14:35:23;31.60;;;16.40;;
44662;SDS011;30381;52.754;18.258;2023-03-01T14:38:20;33.10;;;17.30;;
44662;SDS011;30381;52.754;18.258;2023-03-01T14:41:34;29.00;;;15.20;;
44662;SDS011;30381;52.754;18.258;2023-03-01T14:47:05;27.10;;;14.20;;
44662;SDS011;30381;52.754;18.258;2023-03-01T14:53:02;31.50;;;14.70;;
44662;SDS011;30381;52.754;18.258;2023-03-01T15:23:47;86.00;;;56.20;;
44662;SDS011;30381;52.754;18.258;2023-03-01T15:38:55;72.90;;;28.10;;
44662;SDS011;30381;52.754;18.258;2023-03-01T15:41:47;135.60;;;42.40;;
44662;SDS011;30381;52.754;18.258;2023-03-01T15:44:49;50.90;;;22.20;;
44662;SDS011;30381;52.754;18.258;2023-03-01T19:58:01;90.20;;;45.70;;
44662;SDS011;30381;52.754;18.258;2023-03-01T23:42:04;126.60;;;55.50;;
